• Join FlightAware (Why Join?)
  • Login
  • US Flag 
03:26PM EDT


 

Airport Tracker/Info


-or-


 

Live Flight TrackerFlight Track Log ✈ DAL268 ✈ 22-Aug-2013 ✈ KSFO - KJFK

Flight Track Log - Related Links

Times and Time Zones

All times are in EDT time to prevent confusion due to time zone crossing. See the DAL268 flight status page for this flight to view local times or setup timezone preferences in your user account.

Time Position Orientation Groundspeed Altitude Reporting Facility
EDT Latitude Longitude Course Direction KTS MPH feet Rate Location/Type
02:31PM 37.6090 -122.3790 22° Northeast 72 83  Level FlightAware
02:31PM 37.6170 -122.3740 26° Northeast 150 173 960 Level FlightAware
02:32PM 37.6319 -122.3640 28° Northeast 171 197 600 2,100 Climbing FlightAware ADS-B
02:32PM 37.6387 -122.3570 39° Northeast 173 199 1,100 2,520 Climbing FlightAware ADS-B
02:32PM 37.6404 -122.3550 43° Northeast 177 204 1,200 1,560 Climbing FlightAware ADS-B
02:32PM 37.6464 -122.3450 53° Northeast 190 219 1,500 1,380 Climbing FlightAware ADS-B
02:32PM 37.6516 -122.3370 51° Northeast 201 231 1,700 1,320 Climbing FlightAware ADS-B
02:32PM 37.6596 -122.3250 50° Northeast 220 253 2,000 1,500 Climbing FlightAware ADS-B
02:33PM 37.6704 -122.3080 51° Northeast 241 277 2,400 1,560 Climbing FlightAware ADS-B
02:33PM 37.6821 -122.2920 47° Northeast 262 302 2,800 1,800 Climbing FlightAware ADS-B
02:33PM 37.6903 -122.2800 49° Northeast 269 310 3,200 2,400 Climbing FlightAware ADS-B
02:33PM 37.6937 -122.2760 43° Northeast 269 310 3,400 2,820 Climbing FlightAware ADS-B
02:33PM 37.7098 -122.2570 43° Northeast 274 315 4,200 3,120 Climbing FlightAware ADS-B
02:34PM 37.7164 -122.2500 40° Northeast 275 316 4,600 3,240 Climbing FlightAware ADS-B
02:34PM 37.7323 -122.2350 37° Northeast 276 318 5,400 2,760 Climbing FlightAware ADS-B
02:34PM 37.7623 -122.2070 36° Northeast 285 328 6,700 2,580 Climbing FlightAware ADS-B
02:35PM 37.7786 -122.1920 36° Northeast 291 335 7,300 2,460 Climbing FlightAware ADS-B
02:35PM 37.7954 -122.1760 37° Northeast 294 338 8,000 2,580 Climbing FlightAware ADS-B
02:35PM 37.8111 -122.1610 37° Northeast 301 346 8,600 2,460 Climbing FlightAware ADS-B
02:35PM 37.8283 -122.1440 38° Northeast 304 350 9,200 2,460 Climbing FlightAware ADS-B
02:36PM 37.8461 -122.1270 37° Northeast 307 353 9,900 1,920 Climbing FlightAware ADS-B
02:36PM 37.8816 -122.0930 37° Northeast 333 383 10,700 1,140 Climbing FlightAware ADS-B
02:37PM 37.9222 -122.0540 37° Northeast 367 422 11,100 840 Climbing FlightAware ADS-B
02:37PM 37.9648 -122.0140 37° Northeast 393 452 11,600 1,500 Climbing FlightAware ADS-B
02:38PM 38.0126 -121.9680 37° Northeast 411 473 12,700 2,160 Climbing FlightAware ADS-B
02:38PM 38.0900 -121.8930 37° Northeast 421 484 14,600 2,520 Climbing FlightAware
02:39PM 38.1390 -121.8470 36° Northeast 411 473 16,200 1,800 Climbing FlightAware
02:40PM 38.1960 -121.7920 37° Northeast 441 507 16,700 1,260 Climbing FlightAware
02:40PM 38.2600 -121.7300 37° Northeast 453 521 17,800 1,680 Climbing FlightAware
02:41PM 38.3120 -121.6790 38° Northeast 460 529 18,700 1,680 Climbing FlightAware
02:41PM 38.3780 -121.6150 37° Northeast 469 540 19,800 1,620 Climbing FlightAware
02:42PM 38.4320 -121.5590 39° Northeast 476 548 20,600 1,560 Climbing FlightAware
02:43PM 38.4850 -121.4820 49° Northeast 482 555 21,600 1,500 Climbing FlightAware
02:43PM 38.5310 -121.4050 53° Northeast 490 564 22,400 1,320 Climbing FlightAware
02:44PM 38.5797 -121.3190 54° Northeast 497 572 23,200 1,320 Climbing FlightAware ADS-B
02:44PM 38.6260 -121.2390 53° Northeast 504 580 24,000 1,380 Climbing FlightAware
02:45PM 38.6561 -121.1870 53° Northeast 499 574 24,500 1,380 Climbing FlightAware ADS-B
02:45PM 38.7230 -121.0710 54° Northeast 514 592 25,600 1,200 Climbing FlightAware
02:46PM 38.7700 -120.9900 53° Northeast 521 600 26,200 1,080 Climbing FlightAware
02:47PM 38.8250 -120.8950 53° Northeast 528 608 26,900 1,020 Climbing FlightAware
02:47PM 38.8790 -120.8000 54° Northeast 533 613 27,500 1,080 Climbing FlightAware
02:48PM 38.9310 -120.7120 53° Northeast 536 617 28,200 1,200 Climbing FlightAware
02:48PM 38.9740 -120.6360 54° Northeast 536 617 28,800 1,440 Climbing FlightAware
02:49PM 39.0330 -120.5350 53° Northeast 529 609 29,900 1,500 Climbing FlightAware
02:50PM 39.0820 -120.4480 54° Northeast 527 606 30,700 1,380 Climbing FlightAware
02:50PM 39.1310 -120.3640 53° Northeast 522 601 31,500 1,500 Climbing FlightAware
02:51PM 39.1720 -120.2920 54° Northeast 517 595 32,300 1,380 Climbing FlightAware
02:51PM 39.2290 -120.1910 54° Northeast 515 593 33,100 1,140 Climbing FlightAware
02:52PM 39.2830 -120.0970 53° Northeast 514 592 33,800 1,020 Climbing FlightAware
02:52PM 39.3320 -120.0090 54° Northeast 512 589 34,400 1,020 Climbing FlightAware
02:53PM 39.3770 -119.9310 53° Northeast 511 588 35,000 480 Climbing FlightAware
02:54PM 39.4300 -119.8360 54° Northeast 515 593 35,000  Level FlightAware
02:54PM 39.4640 -119.7760 54° Northeast 517 595 35,000  Level FlightAware
02:55PM 39.5210 -119.6740 54° Northeast 519 597 35,000  Level FlightAware
02:55PM 39.5630 -119.6000 54° Northeast 517 595 35,000  Level FlightAware
02:56PM 39.6160 -119.5040 54° Northeast 517 595 35,000  Level FlightAware
02:56PM 39.6670 -119.4130 54° Northeast 518 596 35,000  Level FlightAware
02:57PM 39.7140 -119.3280 54° Northeast 517 595 35,000  Level FlightAware
02:58PM 39.7610 -119.2420 55° Northeast 516 594 35,000  Level FlightAware
02:58PM 39.8140 -119.1470 54° Northeast 516 594 35,000  Level FlightAware
02:59PM 39.8570 -119.0700 54° Northeast 513 590 35,000  Level FlightAware
02:59PM 39.9070 -118.9780 55° Northeast 515 593 35,000  Level FlightAware
03:00PM 39.9570 -118.8860 55° Northeast 515 593 35,000  Level FlightAware
03:01PM 40.0010 -118.8050 55° Northeast 515 593 35,000  Level FlightAware
03:01PM 40.0520 -118.7120 54° Northeast 510 587 35,000  Level FlightAware
03:02PM 40.0960 -118.6310 55° Northeast 509 586 35,000  Level FlightAware
03:02PM 40.1350 -118.5370 61° Northeast 498 573 35,000  Level FlightAware
03:03PM 40.1640 -118.4390 69° East 493 567 35,000  Level FlightAware
03:03PM 40.1920 -118.3370 70° East 493 567 35,000  Level FlightAware
03:04PM 40.2150 -118.2510 71° East 492 566 35,000  Level FlightAware
03:05PM 40.2410 -118.1560 70° East 490 564 35,000  Level FlightAware
03:05PM 40.2730 -118.0380 70° East 488 562 35,000  Level FlightAware
03:06PM 40.2990 -117.9440 70° East 488 562 35,000  Level FlightAware
03:06PM 40.3220 -117.8590 70° East 488 562 35,000  Level FlightAware
03:07PM 40.3460 -117.7740 70° East 488 562 35,000  Level FlightAware
03:08PM 40.3710 -117.6840 70° East 488 562 35,000  Level FlightAware
03:08PM 40.3950 -117.5990 70° East 488 562 35,000  Level FlightAware
03:09PM 40.4180 -117.5130 71° East 488 562 35,000  Level FlightAware
03:09PM 40.4420 -117.4280 70° East 488 562 35,000  Level FlightAware
03:10PM 40.4650 -117.3430 70° East 488 562 35,000  Level FlightAware
03:11PM 40.4900 -117.2550 69° East 488 562 35,000  Level FlightAware
03:11PM 40.5140 -117.1670 70° East 488 562 35,000  Level FlightAware
03:12PM 40.5380 -117.0820 70° East 488 562 35,000  Level FlightAware
03:13PM 40.5610 -116.9960 71° East 488 562 35,000  Level FlightAware
03:13PM 40.5860 -116.9090 69° East 488 562 35,000  Level FlightAware
03:14PM 40.6090 -116.8230 71° East 488 562 35,000  Level FlightAware
03:14PM 40.6320 -116.7400 70° East 488 562 35,000  Level FlightAware
03:15PM 40.6620 -116.6310 70° East 488 562 35,000  Level FlightAware
03:17PM 40.7950 -116.0840 72° East 500 575 35,000  Level FlightAware ADS-B
03:17PM 40.8182 -115.9970 71° East 503 579 35,000  Level FlightAware ADS-B
03:18PM 40.8440 -115.8990 71° East 505 581 35,000  Level FlightAware ADS-B
03:18PM 40.8671 -115.8110 71° East 500 575 35,000  Level FlightAware ADS-B
03:19PM 40.9097 -115.6480 71° East 499 574 35,000  Level FlightAware ADS-B
03:20PM 40.9541 -115.4760 71° East 500 575 35,000  Level FlightAware ADS-B
03:21PM 40.9962 -115.3130 71° East 500 575 35,000  Level FlightAware ADS-B
03:22PM 41.0193 -115.2230 71° East 509 586 35,000  Level FlightAware ADS-B
03:22PM 41.0422 -115.1330 71° East 508 585 35,000  Level FlightAware ADS-B
03:23PM 41.0648 -115.0450 71° East 508 585 35,000  Level FlightAware ADS-B
03:23PM 41.0874 -114.9550 72° East 508 585 35,000  Level FlightAware ADS-B
03:24PM 41.1100 -114.8660 71° East 509 586 35,000  Level FlightAware ADS-B
03:24PM 41.1325 -114.7760 72° East 508 585 35,000  Level FlightAware ADS-B
03:25PM 41.1601 -114.6660 72° East 507 583 35,000  Level FlightAware ADS-B
03:25PM 41.1824 -114.5770 72° East 507 583 35,000  Level FlightAware ADS-B
03:26PM 41.2047 -114.4870 72° East 508 585 35,000  Level FlightAware ADS-B
03:26PM 41.2267 -114.3980 72° East 507 583 35,000  Level FlightAware ADS-B
03:27PM 41.2496 -114.3060 72° East 506 582 35,000  Level FlightAware ADS-B
03:27PM 41.2742 -114.2050 72° East 508 585 35,000  Level FlightAware ADS-B
03:28PM 41.2994 -114.1020 72° East 509 586 35,000  Level FlightAware ADS-B
03:28PM 41.3231 -114.0050 72° East 508 585 35,000  Level FlightAware ADS-B
03:29PM 41.3453 -113.9130 72° East 507 583 35,000  Level FlightAware ADS-B
03:29PM 41.3614 -113.8360 74° East 505 581 35,000  Level FlightAware ADS-B
03:30PM 41.3755 -113.7450 78° East 504 580 35,000  Level FlightAware ADS-B
03:30PM 41.3878 -113.6510 80° East 503 579 35,000  Level FlightAware ADS-B
03:31PM 41.4028 -113.5330 80° East 503 579 35,000  Level FlightAware ADS-B
03:32PM 41.4143 -113.4410 81° East 504 580 35,000  Level FlightAware ADS-B
03:32PM 41.4259 -113.3490 80° East 504 580 35,000  Level FlightAware ADS-B
03:33PM 41.4384 -113.2490 81° East 503 579 35,000  Level FlightAware ADS-B
03:33PM 41.4499 -113.1570 81° East 503 579 35,000  Level FlightAware ADS-B
03:34PM 41.4614 -113.0640 81° East 503 579 35,000  Level FlightAware ADS-B
03:34PM 41.4747 -112.9550 81° East 504 580 35,000  Level FlightAware ADS-B
03:35PM 41.4940 -112.7980 81° East 500 575 35,000  Level FlightAware
03:35PM 41.4970 -112.7720 81° East 503 579 35,000  Level FlightAware ADS-B
03:36PM 41.5084 -112.6760 81° East 501 577 35,000  Level FlightAware ADS-B
03:36PM 41.5198 -112.5810 81° East 503 579 35,000  Level FlightAware ADS-B
03:37PM 41.5321 -112.4770 81° East 505 581 35,000  Level FlightAware ADS-B
03:37PM 41.5423 -112.3830 82° East 507 583 35,000  Level FlightAware ADS-B
03:38PM 41.5533 -112.2770 82° East 508 585 35,000  Level FlightAware ADS-B
03:38PM 41.5634 -112.1790 82° East 509 586 35,000  Level FlightAware ADS-B
03:39PM 41.5731 -112.0840 82° East 511 588 35,000  Level FlightAware ADS-B
03:40PM 41.5835 -111.9830 82° East 511 588 35,000  Level FlightAware ADS-B
03:40PM 41.5939 -111.8820 82° East 512 589 35,000  Level FlightAware ADS-B
03:41PM 41.6034 -111.7880 82° East 514 592 35,000  Level FlightAware ADS-B
03:41PM 41.6140 -111.6830 82° East 516 594 35,000  Level FlightAware ADS-B
03:42PM 41.6234 -111.5880 82° East 516 594 35,000  Level FlightAware ADS-B
03:42PM 41.6327 -111.4940 82° East 514 592 35,000  Level FlightAware ADS-B
03:43PM 41.6421 -111.3980 83° East 511 588 35,000  Level FlightAware ADS-B
03:43PM 41.6512 -111.3040 83° East 508 585 35,000  Level FlightAware ADS-B
03:44PM 41.6602 -111.2100 83° East 508 585 35,000  Level FlightAware ADS-B
03:44PM 41.6692 -111.1150 83° East 509 586 35,000  Level FlightAware ADS-B
03:45PM 41.6781 -111.0210 83° East 507 583 35,000  Level FlightAware ADS-B
03:45PM 41.6871 -110.9240 83° East 508 585 35,000  Level FlightAware ADS-B
03:46PM 41.6960 -110.8280 83° East 511 588 35,000  Level FlightAware ADS-B
03:46PM 41.7056 -110.7220 83° East 512 589 35,000  Level FlightAware ADS-B
03:47PM 41.7197 -110.5556 83° East 509 586 35,000  Level Salt Lake Center
03:48PM 41.7392 -110.3472 83° East 507 583 35,000  Level Salt Lake Center
03:49PM 41.7547 -110.1681 83° East 506 582 35,000  Level Salt Lake Center
03:50PM 41.7722 -109.9600 83° East 503 579 35,000  Level Salt Lake Center
03:51PM 41.7872 -109.7806 84° East 504 580 35,000  Level Salt Lake Center
03:52PM 41.8025 -109.6006 83° East 508 585 35,000  Level Salt Lake Center
03:53PM 41.8197 -109.3900 84° East 506 582 35,000  Level Salt Lake Center
03:55PM 41.8342 -109.2100 84° East 505 581 35,000  Level Salt Lake Center
03:56PM 41.8489 -109.0008 85° East 502 578 35,000  Level Salt Lake Center
03:57PM 41.8631 -108.8194 84° East 506 582 35,000  Level Salt Lake Center
03:58PM 41.8783 -108.6078 84° East 509 586 35,000  Level Salt Lake Center
03:59PM 41.8906 -108.4261 85° East 511 588 35,000  Level Salt Lake Center
04:00PM 41.9067 -108.2456 83° East 510 587 35,000  Level Salt Lake Center
04:01PM 41.9194 -108.0311 85° East 514 592 35,000  Level Salt Lake Center
04:02PM 41.9294 -107.8486 86° East 513 590 35,000  Level Salt Lake Center
04:03PM 41.9433 -107.6350 85° East 513 590 35,000 300 Level Salt Lake Center
04:08PM 42.0270 -106.5900 85° East 502 578 37,000 300 Climbing FlightAware
04:09PM 42.0380 -106.4850 82° East 502 578 37,000  Level FlightAware
04:10PM 42.0500 -106.3570 83° East 504 580 37,000  Level FlightAware
04:10PM 42.0620 -106.2310 83° East 505 581 37,000  Level FlightAware
04:11PM 42.0730 -106.1180 82° East 507 583 37,000  Level FlightAware
04:11PM 42.0820 -106.0170 83° East 506 582 37,000  Level FlightAware
04:12PM 42.0930 -105.9010 83° East 507 583 37,000  Level FlightAware
04:13PM 42.1070 -105.7620 82° East 507 583 37,000  Level FlightAware
04:13PM 42.1170 -105.6480 83° East 507 583 37,000  Level FlightAware
04:14PM 42.1270 -105.5470 82° East 507 583 37,000  Level FlightAware
04:15PM 42.1370 -105.4180 84° East 511 588 37,000  Level FlightAware
04:15PM 42.1460 -105.3170 83° East 511 588 37,000  Level FlightAware
04:16PM 42.1550 -105.2170 83° East 510 587 37,000  Level FlightAware
04:16PM 42.1621 -105.1400 83° East 512 589 37,000  Level FlightAware ADS-B
04:17PM 42.1707 -105.0440 83° East 513 590 37,000  Level FlightAware ADS-B
04:17PM 42.1791 -104.9490 83° East 515 593 37,000  Level FlightAware ADS-B
04:18PM 42.1876 -104.8510 83° East 516 594 37,000  Level FlightAware ADS-B
04:18PM 42.1968 -104.7440 83° East 516 594 37,000  Level FlightAware ADS-B
04:19PM 42.2051 -104.6480 83° East 516 594 37,000  Level FlightAware ADS-B
04:19PM 42.2132 -104.5520 83° East 516 594 37,000  Level FlightAware ADS-B
04:20PM 42.2212 -104.4560 84° East 515 593 37,000  Level FlightAware ADS-B
04:20PM 42.2292 -104.3590 84° East 515 593 37,000  Level FlightAware ADS-B
04:21PM 42.2372 -104.2620 84° East 515 593 37,000  Level FlightAware ADS-B
04:21PM 42.2461 -104.1510 84° East 514 592 37,000  Level FlightAware ADS-B
04:22PM 42.2538 -104.0550 84° East 510 587 37,000  Level FlightAware ADS-B
04:22PM 42.2613 -103.9610 84° East 507 583 37,000  Level FlightAware ADS-B
04:23PM 42.2687 -103.8660 84° East 506 582 37,000  Level FlightAware ADS-B
04:23PM 42.2760 -103.7710 84° East 508 585 37,000  Level FlightAware ADS-B
04:24PM 42.2839 -103.6690 84° East 511 588 37,000  Level FlightAware ADS-B
04:24PM 42.2911 -103.5740 84° East 512 589 37,000  Level FlightAware ADS-B
04:25PM 42.2983 -103.4780 84° East 513 590 37,000  Level FlightAware ADS-B
04:25PM 42.3059 -103.3750 84° East 513 590 37,000  Level FlightAware ADS-B
04:26PM 42.3141 -103.2630 84° East 512 589 37,000  Level FlightAware ADS-B
04:26PM 42.3210 -103.1670 84° East 512 589 37,000  Level FlightAware ADS-B
04:27PM 42.3282 -103.0670 84° East 512 589 37,000  Level FlightAware ADS-B
04:28PM 42.3365 -102.9480 85° East 513 590 37,000  Level FlightAware ADS-B
04:28PM 42.3434 -102.8490 85° East 515 593 37,000  Level FlightAware ADS-B
04:29PM 42.3514 -102.7330 85° East 516 594 37,000  Level FlightAware ADS-B
04:29PM 42.3581 -102.6330 85° East 519 597 37,000  Level FlightAware ADS-B
04:30PM 42.3676 -102.4910 85° East 521 600 37,000  Level FlightAware ADS-B
04:31PM 42.3756 -102.3769 85° East 520 598 37,000  Level Denver Center
04:32PM 42.3892 -102.1619 85° East 517 595 37,000  Level Denver Center
04:33PM 42.4003 -101.9769 85° East 516 594 37,000  Level Denver Center
04:34PM 42.4128 -101.7653 85° East 512 589 37,000  Level Denver Center
04:35PM 42.4247 -101.5789 85° East 517 595 37,000  Level Denver Center
04:36PM 42.4364 -101.3661 86° East 510 587 37,000  Level Denver Center
04:37PM 42.4467 -101.1808 86° East 514 592 37,000  Level Denver Center
04:38PM 42.4581 -100.9628 86° East 518 596 37,000  Level Denver Center
04:39PM 42.4672 -100.7767 86° East 518 596 37,000  Level Denver Center
04:40PM 42.4783 -100.5597 86° East 518 596 37,000  Level Denver Center
04:41PM 42.4864 -100.3739 87° East 517 595 37,000  Level Denver Center
04:42PM 42.4956 -100.1903 86° East 514 592 37,000  Level Denver Center
04:43PM 42.5064 -99.9344 87° East 516 594 37,000  Level Denver Center
04:44PM 42.5144 -99.7414 87° East 513 590 37,000  Level Denver Center
04:45PM 42.5225 -99.5486 87° East 513 590 37,000  Level Denver Center
04:46PM 42.5303 -99.3533 87° East 515 593 37,000  Level Denver Center
04:47PM 42.5367 -99.1583 87° East 517 595 37,000  Level Denver Center
04:48PM 42.5461 -98.9244 87° East 516 594 37,000  Level Denver Center
04:49PM 42.5519 -98.7300 88° East 517 595 37,000  Level Denver Center
04:55PM 42.5830 -97.6210 88° East 37,000  Level FlightAware
04:56PM 42.5860 -97.4740 88° East 517 595 37,000  Level FlightAware
04:57PM 42.5890 -97.3630 88° East 516 594 37,000  Level FlightAware
04:57PM 42.5910 -97.2490 89° East 516 594 37,000  Level FlightAware
04:58PM 42.5930 -97.1340 89° East 512 589 37,000  Level FlightAware
04:58PM 42.5950 -97.0170 89° East 512 589 37,000  Level FlightAware
04:59PM 42.5970 -96.9040 89° East 513 590 37,000  Level FlightAware
04:59PM 42.5990 -96.7870 89° East 513 590 37,000  Level FlightAware
05:00PM 42.6010 -96.6840 88° East 513 590 37,000  Level FlightAware
05:01PM 42.6030 -96.5300 89° East 512 589 37,000  Level FlightAware
05:01PM 42.6050 -96.4010 89° East 512 589 37,000  Level FlightAware
05:02PM 42.6060 -96.2920 89° East 511 588 37,000  Level FlightAware
05:03PM 42.6070 -96.1830 89° East 510 587 37,000  Level FlightAware
05:03PM 42.6080 -96.0760 89° East 510 587 37,000  Level FlightAware
05:04PM 42.6090 -95.9710 89° East 511 588 37,000  Level FlightAware
05:04PM 42.6100 -95.8420 89° East 511 588 37,000  Level FlightAware
05:05PM 42.6110 -95.7450 89° East 509 586 37,000  Level FlightAware
05:05PM 42.6110 -95.6330 90° East 506 582 37,000  Level FlightAware
05:06PM 42.6120 -95.5140 89° East 506 582 37,000  Level FlightAware
05:07PM 42.6130 -95.4120 89° East 506 582 37,000  Level FlightAware
05:07PM 42.6130 -95.2920 90° East 507 583 37,000  Level FlightAware
05:08PM 42.6130 -95.1900 90° East 508 585 37,000  Level FlightAware
05:08PM 42.6130 -95.0690 90° East 509 586 37,000  Level FlightAware
05:09PM 42.6130 -94.9560 90° East 510 587 37,000  Level FlightAware
05:10PM 42.6130 -94.8510 90° East 510 587 37,000  Level FlightAware
05:10PM 42.6130 -94.7380 90° East 510 587 37,000  Level FlightAware
05:11PM 42.6130 -94.6230 90° East 510 587 37,000  Level FlightAware
05:11PM 42.6120 -94.5200 91° East 510 587 37,000  Level FlightAware
05:12PM 42.6120 -94.4000 90° East 511 588 37,000  Level FlightAware
05:13PM 42.6130 -94.2850 89° East 509 586 37,000  Level FlightAware
05:13PM 42.6140 -94.1770 89° East 508 585 37,000  Level FlightAware
05:14PM 42.6130 -94.0680 91° East 506 582 37,000  Level FlightAware
05:14PM 42.6130 -93.9270 90° East 506 582 37,000  Level FlightAware
05:15PM 42.6140 -93.8280 89° East 506 582 37,000  Level FlightAware
05:16PM 42.6150 -93.7150 89° East 508 585 37,000  Level FlightAware
05:16PM 42.6150 -93.5910 90° East 510 587 37,000  Level FlightAware
05:17PM 42.6160 -93.4960 89° East 510 587 37,000  Level FlightAware
05:17PM 42.6160 -93.3730 90° East 511 588 37,000  Level FlightAware
05:18PM 42.6170 -93.2570 89° East 511 588 37,000  Level FlightAware
05:19PM 42.6170 -93.1300 90° East 512 589 37,000  Level FlightAware
05:19PM 42.6170 -93.0200 90° East 512 589 37,000  Level FlightAware
05:20PM 42.6160 -92.9030 91° East 512 589 37,000  Level FlightAware
05:20PM 42.6160 -92.7870 90° East 511 588 37,000  Level FlightAware
05:21PM 42.6160 -92.6750 90° East 511 588 37,000  Level FlightAware
05:22PM 42.6150 -92.5650 91° East 511 588 37,000  Level FlightAware
05:22PM 42.6140 -92.4520 91° East 512 589 37,000  Level FlightAware
05:23PM 42.6140 -92.3410 90° East 512 589 37,000  Level FlightAware
05:23PM 42.6130 -92.2250 91° East 512 589 37,000  Level FlightAware
05:24PM 42.6120 -92.1010 91° East 512 589 37,000  Level FlightAware
05:25PM 42.6110 -91.9840 91° East 512 589 37,000  Level FlightAware
05:25PM 42.6090 -91.8690 91° East 513 590 37,000  Level FlightAware
05:26PM 42.6080 -91.7630 91° East 513 590 37,000  Level FlightAware
05:26PM 42.6070 -91.6520 91° East 514 592 37,000  Level FlightAware
05:27PM 42.6050 -91.5350 91° East 515 593 37,000  Level FlightAware
05:27PM 42.6030 -91.4170 91° East 515 593 37,000  Level FlightAware
05:28PM 42.6020 -91.3000 91° East 516 594 37,000  Level FlightAware
05:29PM 42.6000 -91.2030 92° East 517 595 37,000  Level FlightAware
05:29PM 42.5980 -91.0880 91° East 518 596 37,000  Level FlightAware
05:30PM 42.5960 -90.9790 91° East 518 596 37,000  Level FlightAware
05:30PM 42.5930 -90.8610 92° East 515 593 37,000  Level FlightAware
05:31PM 42.5910 -90.7500 91° East 513 590 37,000  Level FlightAware
05:32PM 42.5890 -90.6300 91° East 511 588 37,000  Level FlightAware
05:32PM 42.5860 -90.5120 92° East 508 585 37,000  Level FlightAware
05:33PM 42.5830 -90.3920 92° East 506 582 37,000  Level FlightAware
05:33PM 42.5810 -90.2910 92° East 506 582 37,000  Level FlightAware
05:34PM 42.5780 -90.1720 92° East 506 582 37,000  Level FlightAware
05:35PM 42.5750 -90.0590 92° East 506 582 37,000  Level FlightAware
05:35PM 42.5720 -89.9690 93° East 507 583 37,000  Level FlightAware
05:36PM 42.5690 -89.8490 92° East 509 586 37,000  Level FlightAware
05:36PM 42.5660 -89.7450 92° East 510 587 37,000  Level FlightAware
05:37PM 42.5620 -89.6310 93° East 511 588 37,000  Level FlightAware
05:37PM 42.5590 -89.5170 92° East 512 589 37,000  Level FlightAware
05:38PM 42.5550 -89.4090 93° East 514 592 37,000  Level FlightAware
05:39PM 42.5510 -89.2920 93° East 513 590 37,000  Level FlightAware
05:39PM 42.5480 -89.1870 92° East 514 592 37,000  Level FlightAware
05:40PM 42.5430 -89.0670 93° East 515 593 37,000  Level FlightAware
05:40PM 42.5390 -88.9510 93° East 515 593 37,000  Level FlightAware
05:41PM 42.5350 -88.8490 93° East 516 594 37,000  Level FlightAware
05:41PM 42.5310 -88.7320 93° East 514 592 37,000  Level FlightAware
05:42PM 42.5260 -88.6150 93° East 513 590 37,000  Level FlightAware
05:43PM 42.5220 -88.5080 93° East 512 589 37,000  Level FlightAware
05:43PM 42.5180 -88.4050 93° East 512 589 37,000  Level FlightAware
05:44PM 42.5120 -88.2830 94° East 512 589 37,000  Level FlightAware
05:44PM 42.5070 -88.1680 93° East 513 590 37,000  Level FlightAware
05:45PM 42.5030 -88.0750 93° East 514 592 37,000  Level FlightAware
05:46PM 42.5000 -87.9440 92° East 516 594 37,000  Level FlightAware
05:46PM 42.5000 -87.8350 90° East 516 594 37,000  Level FlightAware
05:47PM 42.5000 -87.7230 90° East 516 594 37,000  Level FlightAware
05:47PM 42.4990 -87.6150 91° East 517 595 37,000  Level FlightAware
05:48PM 42.4990 -87.4810 90° East 518 596 37,000  Level FlightAware
05:49PM 42.4980 -87.3570 91° East 517 595 37,000  Level FlightAware
05:49PM 42.4980 -87.2510 90° East 516 594 37,000  Level FlightAware
05:50PM 42.4970 -87.1360 91° East 517 595 37,000  Level FlightAware
05:50PM 42.4960 -87.0180 91° East 517 595 37,000  Level FlightAware
05:51PM 42.4950 -86.9000 91° East 517 595 37,000  Level FlightAware
05:51PM 42.4940 -86.7990 91° East 518 596 37,000  Level FlightAware
05:52PM 42.4930 -86.6860 91° East 520 598 37,000  Level FlightAware
05:53PM 42.4910 -86.5640 91° East 522 601 37,000  Level FlightAware
05:53PM 42.4900 -86.4520 91° East 523 602 37,000  Level FlightAware
05:54PM 42.4880 -86.3270 91° East 524 603 37,000  Level FlightAware
05:54PM 42.4870 -86.2210 91° East 522 601 37,000  Level FlightAware
05:55PM 42.4850 -86.1000 91° East 522 601 37,000  Level FlightAware
05:56PM 42.4830 -85.9970 91° East 524 603 37,000  Level FlightAware
05:56PM 42.4810 -85.8780 91° East 527 606 37,000  Level FlightAware
05:57PM 42.4790 -85.7650 91° East 529 609 37,000  Level FlightAware
05:57PM 42.4770 -85.6480 91° East 527 606 37,000  Level FlightAware
05:58PM 42.4740 -85.5290 92° East 526 605 37,000  Level FlightAware
05:59PM 42.4720 -85.4090 91° East 528 608 37,000  Level FlightAware
05:59PM 42.4690 -85.3020 92° East 529 609 37,000  Level FlightAware
06:00PM 42.4660 -85.1840 92° East 531 611 37,000  Level FlightAware
06:00PM 42.4630 -85.0640 92° East 531 611 37,000  Level FlightAware
06:01PM 42.4600 -84.9460 92° East 533 613 37,000  Level FlightAware
06:01PM 42.4570 -84.8380 92° East 534 615 37,000  Level FlightAware
06:02PM 42.4510 -84.7360 95° East 535 616 37,000  Level FlightAware
06:02PM 42.4450 -84.6360 95° East 535 616 37,000  Level FlightAware
06:03PM 42.4370 -84.4990 94° East 534 615 37,000  Level FlightAware
06:04PM 42.4300 -84.3790 94° East 533 613 37,000  Level FlightAware
06:04PM 42.4240 -84.2760 94° East 533 613 37,000  Level FlightAware
06:05PM 42.4180 -84.1640 94° East 531 611 37,000  Level FlightAware
06:05PM 42.4100 -84.0370 95° East 531 611 37,000  Level FlightAware
06:06PM 42.4030 -83.9230 95° East 531 611 37,000  Level FlightAware
06:07PM 42.3960 -83.8000 94° East 532 612 37,000  Level FlightAware
06:07PM 42.3890 -83.6910 95° East 534 615 37,000  Level FlightAware
06:08PM 42.3810 -83.5730 95° East 537 618 37,000  Level FlightAware
06:08PM 42.3740 -83.4600 95° East 537 618 37,000  Level FlightAware
06:09PM 42.3660 -83.3410 95° East 536 617 37,000  Level FlightAware
06:10PM 42.3580 -83.2230 95° East 534 615 37,000  Level FlightAware
06:10PM 42.3510 -83.1240 95° East 534 615 37,000  Level FlightAware
06:11PM 42.3440 -83.0210 95° East 533 613 37,000  Level FlightAware
06:11PM 42.3360 -82.9030 95° East 533 613 37,000  Level FlightAware
06:12PM 42.3270 -82.7790 96° East 535 616 37,000  Level FlightAware
06:12PM 42.3190 -82.6720 96° East 537 618 37,000  Level FlightAware
06:13PM 42.3110 -82.5590 95° East 536 617 37,000  Level FlightAware
06:14PM 42.3010 -82.4310 96° East 536 617 37,000  Level FlightAware
06:14PM 42.2930 -82.3260 96° East 536 617 37,000  Level FlightAware
06:15PM 42.2840 -82.2050 96° East 535 616 37,000  Level FlightAware
06:15PM 42.2760 -82.0960 96° East 533 613 37,000  Level FlightAware
06:16PM 42.2660 -81.9700 96° East 532 612 37,000  Level FlightAware
06:16PM 42.2570 -81.8620 96° East 533 613 37,000  Level FlightAware
06:17PM 42.2500 -81.7640 95° East 536 617 37,000  Level FlightAware
06:18PM 42.2370 -81.6090 96° East 538 619 37,000  Level FlightAware
06:18PM 42.2280 -81.4990 96° East 535 616 37,000  Level FlightAware
06:19PM 42.2190 -81.3990 97° East 533 613 37,000  Level FlightAware
06:19PM 42.2090 -81.2740 96° East 531 611 37,000  Level FlightAware
06:20PM 42.1970 -81.1430 97° East 528 608 37,000  Level FlightAware
06:21PM 42.1870 -81.0250 96° East 529 609 37,000  Level FlightAware
06:21PM 42.1760 -80.9020 97° East 530 610 37,000  Level FlightAware
06:22PM 42.1660 -80.7870 97° East 529 609 37,000  Level FlightAware
06:23PM 42.1540 -80.6500 97° East 529 609 37,000  Level FlightAware
06:23PM 42.1440 -80.5440 97° East 531 611 37,000  Level FlightAware
06:24PM 42.1350 -80.4450 97° East 517 595 37,000  Level FlightAware
06:24PM 42.1250 -80.3370 97° East 509 586 37,000  Level FlightAware
06:25PM 42.1140 -80.2210 97° East 505 581 37,000  Level FlightAware
06:25PM 42.1030 -80.1010 97° East 504 580 37,000  Level FlightAware
06:26PM 42.0930 -79.9990 97° East 503 579 37,000  Level FlightAware
06:27PM 42.0810 -79.8780 98° East 503 579 37,000  Level FlightAware
06:27PM 42.0700 -79.7670 98° East 506 582 37,000  Level FlightAware
06:28PM 42.0560 -79.6530 99° East 507 583 37,000  Level FlightAware
06:28PM 42.0230 -79.5590 115° Southeast 505 581 37,000  Level FlightAware
06:29PM 41.9590 -79.4750 136° Southeast 494 568 37,000  Level FlightAware
06:30PM 41.9070 -79.4280 146° Southeast 492 566 37,000  Level FlightAware
06:30PM 41.8280 -79.3580 147° Southeast 493 567 37,000  Level FlightAware
06:31PM 41.7610 -79.2980 146° Southeast 496 571 37,000  Level FlightAware
06:31PM 41.7300 -79.2580 136° Southeast 500 575 37,000  Level FlightAware
06:32PM 41.6900 -79.1700 121° Southeast 501 577 37,000  Level FlightAware
06:32PM 41.6710 -79.0510 102° East 506 582 37,000  Level FlightAware
06:33PM 41.6710 -78.9360 90° East 507 583 37,000  Level FlightAware
06:33PM 41.6720 -78.8370 89° East 510 587 37,000  Level FlightAware
06:34PM 41.6740 -78.7160 89° East 512 589 37,000  Level FlightAware
06:35PM 41.6750 -78.6150 89° East 512 589 37,000  Level FlightAware
06:35PM 41.6760 -78.5020 89° East 513 590 37,000  Level FlightAware
06:36PM 41.6760 -78.3970 90° East 512 589 37,000  Level FlightAware
06:36PM 41.6770 -78.2820 89° East 512 589 37,000  Level FlightAware
06:37PM 41.6780 -78.1850 89° East 510 587 37,000  Level FlightAware
06:38PM 41.6780 -78.0710 90° East 507 583 37,000  Level FlightAware
06:38PM 41.6790 -77.9610 89° East 507 583 37,000  Level FlightAware
06:39PM 41.6790 -77.8450 90° East 507 583 37,000  Level FlightAware
06:39PM 41.6790 -77.7290 90° East 501 577 37,000  Level FlightAware
06:40PM 41.6800 -77.6320 89° East 497 572 37,000  Level FlightAware
06:41PM 41.6800 -77.5030 90° East 493 567 37,000  Level FlightAware
06:41PM 41.6800 -77.4020 90° East 494 568 37,000  Level FlightAware
06:42PM 41.6790 -77.2790 91° East 495 570 37,000  Level FlightAware
06:42PM 41.6770 -77.1780 91° East 496 571 37,000  Level FlightAware
06:43PM 41.6590 -77.0780 104° East 499 574 37,000  Level FlightAware
06:43PM 41.6330 -76.9800 110° East 504 580 37,000  Level FlightAware
06:44PM 41.6070 -76.8830 110° East 504 580 37,000  Level FlightAware
06:44PM 41.5822 -76.7948 111° Southeast 503 579 37,000  Level FlightAware ADS-B
06:45PM 41.5511 -76.6824 110° East 505 581 37,000  Level FlightAware ADS-B
06:46PM 41.5261 -76.5923 110° East 505 581 37,000  Level FlightAware ADS-B
06:46PM 41.4965 -76.4851 110° East 503 579 37,000  Level FlightAware ADS-B
06:47PM 41.4714 -76.3948 110° East 499 574 37,000 -360 Level FlightAware ADS-B
06:47PM 41.4431 -76.2934 110° East 496 571 36,600 -840 Descending FlightAware ADS-B
06:48PM 41.4183 -76.2044 110° East 495 570 36,100 -1,200 Descending FlightAware ADS-B
06:48PM 41.3919 -76.1096 110° East 494 568 35,300 -1,620 Descending FlightAware ADS-B
06:49PM 41.3677 -76.0236 111° Southeast 493 567 34,400 -1,860 Descending FlightAware ADS-B
06:49PM 41.3420 -75.9321 110° East 498 573 33,400 -2,400 Descending FlightAware ADS-B
06:50PM 41.3147 -75.8359 111° Southeast 501 577 31,800 -3,060 Descending FlightAware ADS-B
06:51PM 41.2892 -75.7465 111° Southeast 501 577 30,100 -3,480 Descending FlightAware ADS-B
06:51PM 41.2609 -75.6539 112° Southeast 503 579 28,200 -3,060 Descending FlightAware ADS-B
06:52PM 41.2307 -75.5623 114° Southeast 493 567 26,800 -2,580 Descending FlightAware ADS-B
06:52PM 41.2032 -75.4802 114° Southeast 484 557 25,500 -2,640 Descending FlightAware ADS-B
06:53PM 41.1760 -75.3993 114° Southeast 476 548 24,200 -2,400 Descending FlightAware ADS-B
06:53PM 41.1490 -75.3193 114° Southeast 478 550 23,100 -1,200 Descending FlightAware ADS-B
06:54PM 41.1216 -75.2382 114° Southeast 478 550 23,000 -120 Descending FlightAware ADS-B
06:54PM 41.0917 -75.1499 114° Southeast 479 551 23,000 -120 Level FlightAware ADS-B
06:55PM 41.0645 -75.0699 114° Southeast 474 545 22,900 -720 Descending FlightAware ADS-B
06:55PM 41.0360 -74.9863 114° Southeast 470 541 22,300 -1,200 Descending FlightAware ADS-B
06:56PM 41.0101 -74.9086 114° Southeast 469 540 21,700 -1,500 Descending FlightAware ADS-B
06:56PM 40.9972 -74.8561 108° East 473 544 21,100 -1,080 Descending FlightAware ADS-B
06:56PM 40.9883 -74.7975 101° East 471 542 21,000 -120 Descending FlightAware ADS-B
06:57PM 40.9790 -74.7120 98° East 464 534 21,000 -300 Level FlightAware ADS-B
06:57PM 40.9693 -74.6243 98° East 465 535 20,700 -720 Descending FlightAware ADS-B
06:58PM 40.9601 -74.5397 98° East 459 528 20,300 -960 Descending FlightAware ADS-B
06:59PM 40.9493 -74.4419 98° East 457 526 19,700 -900 Descending FlightAware ADS-B
06:59PM 40.9398 -74.3563 98° East 455 524 19,300 -720 Descending FlightAware ADS-B
07:00PM 40.9298 -74.2679 98° East 448 516 19,000 -420 Descending FlightAware ADS-B
07:00PM 40.9223 -74.2278 104° East 428 493 19,000  Level FlightAware ADS-B
07:00PM 40.9088 -74.1882 114° Southeast 407 468 19,000  Level FlightAware ADS-B
07:00PM 40.9050 -74.1799 121° Southeast 400 460 19,000  Level FlightAware ADS-B
07:00PM 40.8964 -74.1641 126° Southeast 389 448 19,000 -180 Level FlightAware ADS-B
07:01PM 40.8669 -74.1226 133° Southeast 394 453 18,900 -420 Descending FlightAware ADS-B
07:01PM 40.8587 -74.1118 135° Southeast 359 413 18,800 -780 Descending FlightAware ADS-B
07:01PM 40.8565 -74.1092 138° Southeast 357 411 18,800 -720 Level FlightAware ADS-B
07:01PM 40.8471 -74.0988 140° Southeast 351 404 18,700 -840 Descending FlightAware ADS-B
07:01PM 40.8371 -74.0904 148° Southeast 346 398 18,600 -1,500 Descending FlightAware ADS-B
07:01PM 40.8357 -74.0894 152° Southeast 345 397 18,500 -1,140 Descending FlightAware ADS-B
07:01PM 40.8220 -74.0818 157° South 339 390 18,400 -1,320 Descending FlightAware ADS-B
07:01PM 40.8152 -74.0789 162° South 337 388 18,200 -1,800 Descending FlightAware ADS-B
07:02PM 40.7771 -74.0650 165° South 335 386 17,500 -1,560 Descending FlightAware ADS-B
07:02PM 40.7689 -74.0621 165° South 335 386 17,400 -1,620 Descending FlightAware ADS-B
07:02PM 40.7254 -74.0472 165° South 333 383 16,600 -1,620 Descending FlightAware ADS-B
07:03PM 40.7027 -74.0395 166° South 332 382 16,200 -1,500 Descending FlightAware ADS-B
07:03PM 40.6773 -74.0308 165° South 328 377 15,800 -1,560 Descending FlightAware ADS-B
07:03PM 40.6336 -74.0159 165° South 325 374 15,000 -1,560 Descending FlightAware ADS-B
07:04PM 40.5985 -74.0037 165° South 323 372 14,400 -1,500 Descending FlightAware ADS-B
07:04PM 40.5856 -73.9992 165° South 321 369 14,200 -1,380 Descending FlightAware ADS-B
07:04PM 40.5494 -73.9854 164° South 316 364 13,600 -1,380 Descending FlightAware ADS-B
07:04PM 40.5429 -73.9812 154° Southeast 316 364 13,500 -960 Descending FlightAware ADS-B
07:05PM 40.5018 -73.9464 147° Southeast 317 365 13,000 -720 Descending FlightAware ADS-B
07:05PM 40.4830 -73.9266 141° Southeast 318 366 12,900 -1,140 Descending FlightAware ADS-B
07:06PM 40.4499 -73.8859 137° Southeast 314 361 12,100 -1,560 Descending FlightAware ADS-B
07:06PM 40.4164 -73.8435 136° Southeast 306 352 11,300 -1,560 Descending FlightAware ADS-B
07:07PM 40.3985 -73.8207 136° Southeast 303 349 10,800 -1,500 Descending FlightAware ADS-B
07:07PM 40.3902 -73.8067 128° Southeast 302 348 10,600 -1,620 Descending FlightAware ADS-B
07:07PM 40.3764 -73.7739 119° Southeast 299 344 10,000 -2,100 Descending FlightAware ADS-B
07:08PM 40.3580 -73.7270 117° Southeast 296 341 8,800 -2,400 Descending FlightAware
07:08PM 40.3410 -73.6816 116° Southeast 297 342 7,700 -2,520 Descending FlightAware ADS-B
07:08PM 40.3374 -73.6557 100° East 295 339 7,100 -2,100 Descending FlightAware ADS-B
07:09PM 40.3490 -73.5990 75° East 279 321 5,900 -1,920 Descending FlightAware
07:09PM 40.3570 -73.5890 44° Northeast 271 312 5,700 -1,440 Descending FlightAware
07:09PM 40.3670 -73.5790 37° Northeast 260 299 5,500 -1,260 Descending FlightAware
07:10PM 40.3870 -73.5640 30° Northeast 246 283 5,100 -900 Descending FlightAware
07:10PM 40.4060 -73.5500 29° Northeast 235 270 4,900 -840 Descending FlightAware
07:10PM 40.4290 -73.5320 31° Northeast 231 266 4,500 -960 Descending FlightAware
07:11PM 40.4480 -73.5180 29° Northeast 229 264 4,200 -780 Descending FlightAware
07:11PM 40.4580 -73.5090 34° Northeast 230 265 4,100 -360 Descending FlightAware
07:11PM 40.4800 -73.4930 29° Northeast 228 262 4,000 -180 Descending FlightAware
07:12PM 40.4990 -73.4780 31° Northeast 228 262 4,000  Level FlightAware
07:12PM 40.5170 -73.4640 31° Northeast 228 262 4,000  Level FlightAware
07:12PM 40.5360 -73.4500 29° Northeast 229 264 4,000  Level FlightAware
07:12PM 40.5444 -73.4436 30° Northeast 229 264 4,000  Level FlightAware ADS-B
07:13PM 40.5750 -73.4200 30° Northeast 229 264 4,000  Level FlightAware
07:13PM 40.5950 -73.4100 21° North 223 257 4,000  Level FlightAware
07:13PM 40.6040 -73.4090 North 223 257 4,000  Level FlightAware
07:14PM 40.6180 -73.4090 360° North 224 258 4,000  Level FlightAware
07:14PM 40.6460 -73.4090 360° North 224 258 4,000  Level FlightAware
07:15PM 40.6700 -73.4090 360° North 223 257 4,000  Level FlightAware
07:15PM 40.7000 -73.4090 360° North 224 258 4,000  Level FlightAware
07:15PM 40.7210 -73.4090 360° North 217 250 4,000  Level FlightAware
07:16PM 40.7420 -73.4080 North 197 227 4,000  Level FlightAware
07:16PM 40.7720 -73.4130 353° North 184 212 4,000  Level FlightAware
07:17PM 40.7920 -73.4350 320° Northwest 185 213 4,000  Level FlightAware
07:17PM 40.8040 -73.4480 321° Northwest 182 209 4,000  Level FlightAware
07:18PM 40.8170 -73.4640 317° Northwest 182 209 4,000 -300 Level FlightAware
07:18PM 40.8330 -73.4820 320° Northwest 177 204 3,800 -720 Descending FlightAware
07:18PM 40.8440 -73.4950 318° Northwest 177 204 3,500 -900 Descending FlightAware
07:19PM 40.8580 -73.5110 319° Northwest 174 200 3,200 -840 Descending FlightAware
07:19PM 40.8670 -73.5280 305° West 166 191 2,900 -840 Descending FlightAware
07:19PM 40.8580 -73.5550 246° West 166 191 2,500 -900 Descending FlightAware
07:20PM 40.8520 -73.5640 229° Southwest 165 190 2,300 -780 Descending FlightAware
07:20PM 40.8400 -73.5860 234° Southwest 165 190 2,000 -420 Descending FlightAware
07:20PM 40.8300 -73.6020 230° Southwest 168 193 2,000  Level FlightAware
07:21PM 40.8190 -73.6170 226° Southwest 165 190 2,000  Level FlightAware
07:21PM 40.8120 -73.6250 221° Southwest 168 193 2,000  Level FlightAware
07:21PM 40.8080 -73.6290 217° Southwest 169 194 2,000  Level FlightAware
07:21PM 40.7950 -73.6390 210° Southwest 170 196 2,000  Level FlightAware
07:22PM 40.7800 -73.6500 209° Southwest 168 193 2,000  Level FlightAware
07:22PM 40.7710 -73.6570 210° Southwest 168 193 2,000  Level FlightAware
07:22PM 40.7550 -73.6690 210° Southwest 167 192 2,000  Level FlightAware
07:23PM 40.7410 -73.6800 211° Southwest 167 192 2,000  Level FlightAware
07:23PM 40.7330 -73.6860 210° Southwest 171 197 2,000 -600 Level FlightAware
07:23PM 40.7200 -73.6970 213° Southwest 170 196 1,700 -840 Descending FlightAware
07:24PM 40.7090 -73.7050 209° Southwest 159 183 1,500 -840 Descending FlightAware
07:24PM 40.6980 -73.7140 212° Southwest 139 160 1,200 -780 Descending FlightAware
07:24PM 40.6870 -73.7220 209° Southwest 130 150 1,000 -720 Descending FlightAware
07:25PM 40.6750 -73.7320 212° Southwest 129 148 700 -720 Descending FlightAware
07:25PM 40.6600 -73.7433 210° Southwest 135 155 400 -720 Descending FlightAware ADS-B
07:26PM 40.6420 -73.7570 210° Southwest 133 153 -780 Descending FlightAware